Atlanta, Georgia
Traffic Map
Current Weather Conditions
Atlanta, Georgia
Broken Clouds Light Rain
Broken Clouds
59°
Feels Like: 59°
Wind Chill: 59° Ceiling: 11000
Heat Index: 59° Visibility: 10mi
Dew Point: 44° Wind: 20mph
Humidity: 58% Direction: 10° (N)
Pressure: 29.77in Gusts: 30mph
Raw Report DataKATL 052152Z 01017G26KT 10SM -RA SCT055TCU SCT080 BKN110 15/07 A2977 RMK AO2 PK WND 36032/2130 WSHFT 2122 RAB2057E08B48 SLP080 TCU NE-OHD-SW P0000 T01500067
Traffic Incident Summary
Active as of:
Severity:
Category:
InformationThere was an issue retrieving the traffic information for this location. Please try a different location or try again shortly.
Advertisements
Track Severe Weather on mobile